Rome, Italië

1:54 AM CEST op 23 oktober 2014 (GMT +0200)
Ciampino | Change Station
CLOSE
Current Station
Persoonlijk weerstation
Location: Ciampino, LAZIO
Geometrische hoogte: 348 ft
Nabije weerstations

Hoogte 348 ft 41.81 °N, 12.60 °E | Updated 8 minutes ago

Partly Cloudy
Gedeeltelijk bewolkt
51.1 °F
Voelt als 51.1 °F
N
1.6
Wind Variabel Wind van NW
Gusts 3.1 mijl/u

Vandaag
Hoog -- | Laag -- °F
--% Kans op neerslag
Gisteren
Hoog -- | Laag -- °F
Precip. -- inches
7:30 AM 6:16 PM
Afnemende halvemaan, 1% visible
Druk 29.83 inches
Zicht 6.2 mijlen
Wolken Gering 7000 ft
Dauwpunt 39 °F
Vochtigheid 63%
Neerslag 0.00 inches
Dikte sneeuw Niet beschikbaar.
UV 0 van de 12
Pollen Niet beschikbaar.
Luchtkwaliteit Niet beschikbaar.
Flu Activity Niet beschikbaar.
METAR LIRA 222315Z 34003KT 9999 FEW070 09/01 Q1010

More Conditions Fewer Conditions

Druk 29.83 inches
Zicht 6.2 mijlen
Wolken Gering 7000 ft
Dauwpunt 39 °F
Vochtigheid 63%
Neerslag 0.00 inches
Dikte sneeuw Niet beschikbaar.
UV 0 van de 12
Pollen Niet beschikbaar.
Luchtkwaliteit Niet beschikbaar.
Flu Activity Niet beschikbaar.
METAR LIRA 222315Z 34003KT 9999 FEW070 09/01 Q1010

More Conditions Fewer Conditions

10-Day Weather Forecast

Almanac

Astronomie

Oct. 23, 2014 Opkomst Ondergang
Werkelijke tijd 7:30 AM CEST 6:16 PM CEST
Burgerlijke schemering 7:02 AM CEST 6:45 PM CEST
Nautische schemering 6:30 AM CEST 7:17 PM CEST
Astronomische schemering 5:57 AM CEST 7:49 PM CEST
Maan 6:53 AM CEST (10/23) 6:08 PM CEST (10/23)
Golflengte van het zichtbare licht 11h 42m
Daglengte
10h 45m
Tomorrow will be 2m 36s shorter.
Afnemende halvemaan, 1% of the Moon is Illuminated
oktober 22
Afnemende halvemaan
oktober 23
Nieuw
oktober 30
Eerste kwartier
nov 6
Volle maan
nov 14
Laatste kwartier

Extremen gisteren

Country Highs Country Lows

Community

WunderPhotos

Upload Photos

1,764,080 foto’s ge-upload!

WunderBlogs® & News

Nearby

Luchtkwaliteit

Not available.

Dikte sneeuw

Not available.

Aardbevingen

Stad Distance Mag. Time & Date
No recent earthquake activity has been reported nearby.
Minimum magnitude displayed is 2.5.

Watertemperatuur langs de kust

Plaats Temperatuur
Geen meldingen van stations

Nabije weerstations